Ochopee, Florida
Current Conditions -  °F | °C
As of 12:55 PM on Monday 24 Nov 2014 (Local Time) from KMKY Reporting Station
Clear Clear  
Wind Chill: 82°   Ceiling: Unl
Heat Index: 88°   Visibility: 10mi
Dew Point: 73°   Wind: 13mph
Humidity: 74%   Direction: 150°SSE
Pressure: 29.96"   Gusts: NA
Location:  25.9°N, 81.3°W
Report Text: KMKY 241755Z AUTO 15011KT 10SM CLR 28/23 A2996 RMK AO1 10290 20240 57017
Loading
Personal Weather Stations






























Interactive Weather Map New forecast layout! Learn more

10-Day Weather Forecast

Advertisements
Track Severe Weather on mobile